sensor_id;sensor_type;location;lat;lon;timestamp;P1;durP1;ratioP1;P2;durP2;ratioP2
10963;SDS011;5534;48.784;9.190;2023-02-05T00:02:06;12.43;;;5.60;;
10963;SDS011;5534;48.784;9.190;2023-02-05T00:04:34;11.10;;;4.93;;
10963;SDS011;5534;48.784;9.190;2023-02-05T00:07:00;11.87;;;5.13;;
10963;SDS011;5534;48.784;9.190;2023-02-05T00:09:26;9.73;;;4.57;;
10963;SDS011;5534;48.784;9.190;2023-02-05T00:11:53;13.13;;;5.47;;
10963;SDS011;5534;48.784;9.190;2023-02-05T00:14:19;14.23;;;5.17;;
10963;SDS011;5534;48.784;9.190;2023-02-05T00:16:45;10.57;;;5.30;;
10963;SDS011;5534;48.784;9.190;2023-02-05T00:19:11;13.47;;;5.20;;
10963;SDS011;5534;48.784;9.190;2023-02-05T00:21:37;10.57;;;5.60;;
10963;SDS011;5534;48.784;9.190;2023-02-05T00:24:03;10.43;;;4.97;;
10963;SDS011;5534;48.784;9.190;2023-02-05T00:26:29;9.17;;;5.57;;
10963;SDS011;5534;48.784;9.190;2023-02-05T00:28:54;8.87;;;5.43;;
10963;SDS011;5534;48.784;9.190;2023-02-05T00:31:20;9.67;;;5.43;;
10963;SDS011;5534;48.784;9.190;2023-02-05T00:33:47;13.73;;;5.17;;
10963;SDS011;5534;48.784;9.190;2023-02-05T00:36:15;11.87;;;5.10;;
10963;SDS011;5534;48.784;9.190;2023-02-05T00:38:42;13.73;;;5.57;;
10963;SDS011;5534;48.784;9.190;2023-02-05T00:41:08;14.57;;;5.87;;
10963;SDS011;5534;48.784;9.190;2023-02-05T00:43:35;11.63;;;4.93;;
10963;SDS011;5534;48.784;9.190;2023-02-05T00:46:00;9.10;;;5.40;;
10963;SDS011;5534;48.784;9.190;2023-02-05T00:48:26;10.27;;;5.10;;
10963;SDS011;5534;48.784;9.190;2023-02-05T00:50:52;10.17;;;5.20;;
10963;SDS011;5534;48.784;9.190;2023-02-05T00:53:19;13.50;;;5.47;;
10963;SDS011;5534;48.784;9.190;2023-02-05T00:55:45;8.87;;;4.73;;
10963;SDS011;5534;48.784;9.190;2023-02-05T00:58:11;10.60;;;5.13;;
10963;SDS011;5534;48.784;9.190;2023-02-05T01:00:37;7.90;;;4.50;;
10963;SDS011;5534;48.784;9.190;2023-02-05T01:03:03;11.53;;;5.17;;
10963;SDS011;5534;48.784;9.190;2023-02-05T01:05:29;10.33;;;4.37;;
10963;SDS011;5534;48.784;9.190;2023-02-05T01:07:55;9.30;;;4.80;;
10963;SDS011;5534;48.784;9.190;2023-02-05T01:10:21;10.10;;;4.70;;
10963;SDS011;5534;48.784;9.190;2023-02-05T01:12:48;9.43;;;4.43;;
10963;SDS011;5534;48.784;9.190;2023-02-05T01:15:14;9.60;;;5.00;;
10963;SDS011;5534;48.784;9.190;2023-02-05T01:17:40;12.17;;;4.77;;
10963;SDS011;5534;48.784;9.190;2023-02-05T01:20:06;8.77;;;4.90;;
10963;SDS011;5534;48.784;9.190;2023-02-05T01:22:33;9.53;;;4.70;;
10963;SDS011;5534;48.784;9.190;2023-02-05T01:24:59;10.93;;;4.90;;
10963;SDS011;5534;48.784;9.190;2023-02-05T01:27:25;9.80;;;4.60;;
10963;SDS011;5534;48.784;9.190;2023-02-05T01:29:51;12.50;;;5.30;;
10963;SDS011;5534;48.784;9.190;2023-02-05T01:32:17;9.23;;;5.50;;
10963;SDS011;5534;48.784;9.190;2023-02-05T01:34:43;12.67;;;6.03;;
10963;SDS011;5534;48.784;9.190;2023-02-05T01:37:09;6.40;;;4.73;;
10963;SDS011;5534;48.784;9.190;2023-02-05T01:39:35;10.60;;;5.20;;
10963;SDS011;5534;48.784;9.190;2023-02-05T01:42:02;9.00;;;5.40;;
10963;SDS011;5534;48.784;9.190;2023-02-05T01:44:35;7.97;;;4.10;;
10963;SDS011;5534;48.784;9.190;2023-02-05T01:47:01;11.90;;;5.00;;
10963;SDS011;5534;48.784;9.190;2023-02-05T01:49:31;8.43;;;4.70;;
10963;SDS011;5534;48.784;9.190;2023-02-05T01:52:11;10.00;;;4.23;;
10963;SDS011;5534;48.784;9.190;2023-02-05T01:54:40;8.53;;;4.80;;
10963;SDS011;5534;48.784;9.190;2023-02-05T01:57:10;8.87;;;4.90;;
10963;SDS011;5534;48.784;9.190;2023-02-05T01:59:42;8.23;;;4.40;;
10963;SDS011;5534;48.784;9.190;2023-02-05T02:02:09;9.73;;;4.97;;
10963;SDS011;5534;48.784;9.190;2023-02-05T02:04:42;11.33;;;4.80;;
10963;SDS011;5534;48.784;9.190;2023-02-05T02:07:15;10.47;;;4.50;;
10963;SDS011;5534;48.784;9.190;2023-02-05T02:09:44;10.10;;;4.57;;
10963;SDS011;5534;48.784;9.190;2023-02-05T02:12:12;8.77;;;4.73;;
10963;SDS011;5534;48.784;9.190;2023-02-05T02:14:41;10.00;;;4.83;;
10963;SDS011;5534;48.784;9.190;2023-02-05T02:17:09;8.60;;;4.80;;
10963;SDS011;5534;48.784;9.190;2023-02-05T02:19:44;11.13;;;4.63;;
10963;SDS011;5534;48.784;9.190;2023-02-05T02:36:24;6.67;;;4.17;;
10963;SDS011;5534;48.784;9.190;2023-02-05T02:39:18;10.43;;;4.53;;
10963;SDS011;5534;48.784;9.190;2023-02-05T02:41:54;5.60;;;4.13;;
10963;SDS011;5534;48.784;9.190;2023-02-05T02:44:39;8.57;;;4.70;;
10963;SDS011;5534;48.784;9.190;2023-02-05T02:47:18;10.60;;;4.93;;
10963;SDS011;5534;48.784;9.190;2023-02-05T02:49:48;8.20;;;4.83;;
10963;SDS011;5534;48.784;9.190;2023-02-05T02:52:17;10.00;;;5.27;;
10963;SDS011;5534;48.784;9.190;2023-02-05T02:54:47;11.37;;;4.60;;
10963;SDS011;5534;48.784;9.190;2023-02-05T02:57:16;10.80;;;4.73;;
10963;SDS011;5534;48.784;9.190;2023-02-05T02:59:44;12.70;;;5.33;;
10963;SDS011;5534;48.784;9.190;2023-02-05T03:02:12;9.07;;;4.27;;
10963;SDS011;5534;48.784;9.190;2023-02-05T03:04:44;11.40;;;5.13;;
10963;SDS011;5534;48.784;9.190;2023-02-05T03:07:16;9.77;;;5.43;;
10963;SDS011;5534;48.784;9.190;2023-02-05T03:09:51;10.43;;;5.17;;
10963;SDS011;5534;48.784;9.190;2023-02-05T03:12:33;9.83;;;5.00;;
10963;SDS011;5534;48.784;9.190;2023-02-05T03:14:59;6.37;;;4.40;;
10963;SDS011;5534;48.784;9.190;2023-02-05T03:17:25;9.70;;;4.93;;
10963;SDS011;5534;48.784;9.190;2023-02-05T03:19:55;10.37;;;4.20;;
10963;SDS011;5534;48.784;9.190;2023-02-05T03:22:26;8.93;;;4.53;;
10963;SDS011;5534;48.784;9.190;2023-02-05T03:24:52;11.37;;;5.20;;
10963;SDS011;5534;48.784;9.190;2023-02-05T03:27:18;8.37;;;4.57;;
10963;SDS011;5534;48.784;9.190;2023-02-05T03:29:46;9.70;;;4.80;;
10963;SDS011;5534;48.784;9.190;2023-02-05T03:35:18;10.37;;;4.73;;
10963;SDS011;5534;48.784;9.190;2023-02-05T03:38:06;10.33;;;5.20;;
10963;SDS011;5534;48.784;9.190;2023-02-05T03:40:46;7.23;;;4.93;;
10963;SDS011;5534;48.784;9.190;2023-02-05T03:45:51;9.00;;;5.00;;
10963;SDS011;5534;48.784;9.190;2023-02-05T03:48:21;7.40;;;4.50;;
10963;SDS011;5534;48.784;9.190;2023-02-05T03:51:14;7.57;;;4.53;;
10963;SDS011;5534;48.784;9.190;2023-02-05T03:53:57;11.67;;;4.90;;
10963;SDS011;5534;48.784;9.190;2023-02-05T03:56:38;8.73;;;4.77;;
10963;SDS011;5534;48.784;9.190;2023-02-05T03:59:10;10.03;;;4.80;;
10963;SDS011;5534;48.784;9.190;2023-02-05T04:01:40;11.17;;;5.50;;
10963;SDS011;5534;48.784;9.190;2023-02-05T04:04:08;11.53;;;5.10;;
10963;SDS011;5534;48.784;9.190;2023-02-05T04:06:34;11.37;;;4.73;;
10963;SDS011;5534;48.784;9.190;2023-02-05T04:09:00;8.53;;;4.60;;
10963;SDS011;5534;48.784;9.190;2023-02-05T04:11:26;7.90;;;4.20;;
10963;SDS011;5534;48.784;9.190;2023-02-05T04:13:51;9.30;;;4.90;;
10963;SDS011;5534;48.784;9.190;2023-02-05T04:16:17;8.40;;;4.40;;
10963;SDS011;5534;48.784;9.190;2023-02-05T04:18:43;8.70;;;4.70;;
10963;SDS011;5534;48.784;9.190;2023-02-05T04:21:08;10.37;;;4.63;;
10963;SDS011;5534;48.784;9.190;2023-02-05T04:23:34;10.03;;;4.73;;
10963;SDS011;5534;48.784;9.190;2023-02-05T04:26:00;10.27;;;4.93;;
10963;SDS011;5534;48.784;9.190;2023-02-05T04:28:25;10.73;;;4.30;;
10963;SDS011;5534;48.784;9.190;2023-02-05T04:30:51;8.00;;;4.37;;
10963;SDS011;5534;48.784;9.190;2023-02-05T04:33:17;8.77;;;4.17;;
10963;SDS011;5534;48.784;9.190;2023-02-05T04:35:43;8.53;;;4.53;;
10963;SDS011;5534;48.784;9.190;2023-02-05T04:38:08;11.33;;;4.63;;
10963;SDS011;5534;48.784;9.190;2023-02-05T04:40:34;8.57;;;4.97;;
10963;SDS011;5534;48.784;9.190;2023-02-05T04:43:00;10.37;;;4.87;;
10963;SDS011;5534;48.784;9.190;2023-02-05T04:45:25;9.17;;;4.70;;
10963;SDS011;5534;48.784;9.190;2023-02-05T04:47:55;8.87;;;5.03;;
10963;SDS011;5534;48.784;9.190;2023-02-05T04:50:22;10.70;;;5.23;;
10963;SDS011;5534;48.784;9.190;2023-02-05T04:52:48;8.90;;;4.50;;
10963;SDS011;5534;48.784;9.190;2023-02-05T04:55:13;6.17;;;4.33;;
10963;SDS011;5534;48.784;9.190;2023-02-05T04:57:39;10.47;;;4.97;;
10963;SDS011;5534;48.784;9.190;2023-02-05T05:00:05;10.33;;;4.93;;
10963;SDS011;5534;48.784;9.190;2023-02-05T05:02:32;10.50;;;5.03;;
10963;SDS011;5534;48.784;9.190;2023-02-05T05:04:57;10.23;;;4.90;;
10963;SDS011;5534;48.784;9.190;2023-02-05T05:07:23;8.63;;;4.33;;
10963;SDS011;5534;48.784;9.190;2023-02-05T05:09:49;7.93;;;5.03;;
10963;SDS011;5534;48.784;9.190;2023-02-05T05:12:14;9.77;;;5.07;;
10963;SDS011;5534;48.784;9.190;2023-02-05T05:14:40;14.33;;;5.13;;
10963;SDS011;5534;48.784;9.190;2023-02-05T05:17:06;9.20;;;4.77;;
10963;SDS011;5534;48.784;9.190;2023-02-05T05:19:32;11.03;;;5.33;;
10963;SDS011;5534;48.784;9.190;2023-02-05T05:21:57;8.37;;;4.80;;
10963;SDS011;5534;48.784;9.190;2023-02-05T05:24:23;11.13;;;5.00;;
10963;SDS011;5534;48.784;9.190;2023-02-05T05:26:49;10.37;;;5.00;;
10963;SDS011;5534;48.784;9.190;2023-02-05T05:29:15;7.60;;;4.70;;
10963;SDS011;5534;48.784;9.190;2023-02-05T05:31:41;11.33;;;5.10;;
10963;SDS011;5534;48.784;9.190;2023-02-05T05:34:07;11.13;;;4.93;;
10963;SDS011;5534;48.784;9.190;2023-02-05T05:36:33;8.07;;;4.83;;
10963;SDS011;5534;48.784;9.190;2023-02-05T05:38:59;10.10;;;6.03;;
10963;SDS011;5534;48.784;9.190;2023-02-05T05:41:44;8.33;;;4.73;;
10963;SDS011;5534;48.784;9.190;2023-02-05T05:44:29;11.27;;;5.57;;
10963;SDS011;5534;48.784;9.190;2023-02-05T05:46:54;7.63;;;4.87;;
10963;SDS011;5534;48.784;9.190;2023-02-05T05:49:20;11.20;;;5.10;;
10963;SDS011;5534;48.784;9.190;2023-02-05T05:51:46;8.70;;;5.30;;
10963;SDS011;5534;48.784;9.190;2023-02-05T05:54:11;8.63;;;4.93;;
10963;SDS011;5534;48.784;9.190;2023-02-05T05:56:37;10.63;;;5.53;;
10963;SDS011;5534;48.784;9.190;2023-02-05T05:59:03;10.60;;;5.57;;
10963;SDS011;5534;48.784;9.190;2023-02-05T06:01:29;9.53;;;4.63;;
10963;SDS011;5534;48.784;9.190;2023-02-05T06:03:55;7.77;;;4.97;;
10963;SDS011;5534;48.784;9.190;2023-02-05T06:06:21;10.23;;;4.80;;
10963;SDS011;5534;48.784;9.190;2023-02-05T06:08:47;12.00;;;5.43;;
10963;SDS011;5534;48.784;9.190;2023-02-05T06:11:13;12.20;;;5.00;;
10963;SDS011;5534;48.784;9.190;2023-02-05T06:13:39;10.33;;;4.90;;
10963;SDS011;5534;48.784;9.190;2023-02-05T06:16:06;11.67;;;5.07;;
10963;SDS011;5534;48.784;9.190;2023-02-05T06:18:32;9.23;;;4.70;;
10963;SDS011;5534;48.784;9.190;2023-02-05T06:20:58;11.53;;;4.57;;
10963;SDS011;5534;48.784;9.190;2023-02-05T06:23:24;11.70;;;4.17;;
10963;SDS011;5534;48.784;9.190;2023-02-05T06:25:49;10.13;;;4.67;;
10963;SDS011;5534;48.784;9.190;2023-02-05T06:28:15;11.17;;;5.07;;
10963;SDS011;5534;48.784;9.190;2023-02-05T06:30:41;9.33;;;4.60;;
10963;SDS011;5534;48.784;9.190;2023-02-05T06:33:07;9.03;;;4.30;;
10963;SDS011;5534;48.784;9.190;2023-02-05T06:35:32;12.07;;;5.00;;
10963;SDS011;5534;48.784;9.190;2023-02-05T06:37:59;8.50;;;4.27;;
10963;SDS011;5534;48.784;9.190;2023-02-05T06:40:25;10.90;;;4.80;;
10963;SDS011;5534;48.784;9.190;2023-02-05T06:42:52;8.43;;;4.53;;
10963;SDS011;5534;48.784;9.190;2023-02-05T06:45:18;11.17;;;5.07;;
10963;SDS011;5534;48.784;9.190;2023-02-05T06:47:44;8.90;;;4.73;;
10963;SDS011;5534;48.784;9.190;2023-02-05T06:50:10;8.50;;;4.60;;
10963;SDS011;5534;48.784;9.190;2023-02-05T06:52:35;10.57;;;4.90;;
10963;SDS011;5534;48.784;9.190;2023-02-05T06:55:01;6.10;;;4.43;;
10963;SDS011;5534;48.784;9.190;2023-02-05T06:57:28;8.53;;;4.03;;
10963;SDS011;5534;48.784;9.190;2023-02-05T06:59:56;11.70;;;5.37;;
10963;SDS011;5534;48.784;9.190;2023-02-05T07:02:22;10.67;;;5.07;;
10963;SDS011;5534;48.784;9.190;2023-02-05T07:04:47;10.80;;;4.93;;
10963;SDS011;5534;48.784;9.190;2023-02-05T07:07:13;14.20;;;5.23;;
10963;SDS011;5534;48.784;9.190;2023-02-05T07:09:40;8.20;;;4.33;;
10963;SDS011;5534;48.784;9.190;2023-02-05T07:12:06;8.40;;;4.87;;
10963;SDS011;5534;48.784;9.190;2023-02-05T07:14:36;9.40;;;5.20;;
10963;SDS011;5534;48.784;9.190;2023-02-05T07:17:02;12.07;;;5.23;;
10963;SDS011;5534;48.784;9.190;2023-02-05T07:19:28;11.07;;;5.10;;
10963;SDS011;5534;48.784;9.190;2023-02-05T07:21:54;10.70;;;5.00;;
10963;SDS011;5534;48.784;9.190;2023-02-05T07:24:20;8.23;;;4.17;;
10963;SDS011;5534;48.784;9.190;2023-02-05T07:26:45;7.67;;;4.53;;
10963;SDS011;5534;48.784;9.190;2023-02-05T07:29:11;12.13;;;5.27;;
10963;SDS011;5534;48.784;9.190;2023-02-05T07:31:37;7.77;;;3.90;;
10963;SDS011;5534;48.784;9.190;2023-02-05T07:34:02;10.00;;;4.70;;
10963;SDS011;5534;48.784;9.190;2023-02-05T07:36:28;9.30;;;4.60;;
10963;SDS011;5534;48.784;9.190;2023-02-05T07:38:54;8.67;;;4.63;;
10963;SDS011;5534;48.784;9.190;2023-02-05T07:41:20;11.07;;;4.77;;
10963;SDS011;5534;48.784;9.190;2023-02-05T07:43:49;10.47;;;4.93;;
10963;SDS011;5534;48.784;9.190;2023-02-05T07:46:16;7.47;;;4.80;;
10963;SDS011;5534;48.784;9.190;2023-02-05T07:48:42;11.70;;;4.90;;
10963;SDS011;5534;48.784;9.190;2023-02-05T07:51:11;10.03;;;4.63;;
10963;SDS011;5534;48.784;9.190;2023-02-05T07:53:44;10.97;;;5.03;;
10963;SDS011;5534;48.784;9.190;2023-02-05T07:56:10;7.07;;;4.93;;
10963;SDS011;5534;48.784;9.190;2023-02-05T07:58:36;10.67;;;4.80;;
10963;SDS011;5534;48.784;9.190;2023-02-05T08:01:02;10.47;;;4.67;;
10963;SDS011;5534;48.784;9.190;2023-02-05T08:03:29;7.43;;;4.13;;
10963;SDS011;5534;48.784;9.190;2023-02-05T08:05:55;10.50;;;5.17;;
10963;SDS011;5534;48.784;9.190;2023-02-05T08:08:21;9.23;;;5.10;;
10963;SDS011;5534;48.784;9.190;2023-02-05T08:10:47;9.27;;;4.93;;
10963;SDS011;5534;48.784;9.190;2023-02-05T08:13:19;10.87;;;5.23;;
10963;SDS011;5534;48.784;9.190;2023-02-05T08:15:45;12.00;;;5.63;;
10963;SDS011;5534;48.784;9.190;2023-02-05T08:18:11;11.50;;;5.33;;
10963;SDS011;5534;48.784;9.190;2023-02-05T08:20:37;10.03;;;5.63;;
10963;SDS011;5534;48.784;9.190;2023-02-05T08:23:03;7.50;;;4.83;;
10963;SDS011;5534;48.784;9.190;2023-02-05T08:25:29;9.70;;;5.07;;
10963;SDS011;5534;48.784;9.190;2023-02-05T08:27:55;14.20;;;5.40;;
10963;SDS011;5534;48.784;9.190;2023-02-05T08:30:20;11.23;;;4.90;;
10963;SDS011;5534;48.784;9.190;2023-02-05T08:32:48;9.47;;;4.80;;
10963;SDS011;5534;48.784;9.190;2023-02-05T08:35:14;7.73;;;5.00;;
10963;SDS011;5534;48.784;9.190;2023-02-05T08:37:41;8.00;;;4.10;;
10963;SDS011;5534;48.784;9.190;2023-02-05T08:40:06;9.53;;;5.13;;
10963;SDS011;5534;48.784;9.190;2023-02-05T08:42:33;9.90;;;5.70;;
10963;SDS011;5534;48.784;9.190;2023-02-05T08:44:59;12.33;;;5.30;;
10963;SDS011;5534;48.784;9.190;2023-02-05T08:47:25;10.57;;;5.60;;
10963;SDS011;5534;48.784;9.190;2023-02-05T08:49:51;10.77;;;4.73;;
10963;SDS011;5534;48.784;9.190;2023-02-05T08:52:17;7.00;;;4.80;;
10963;SDS011;5534;48.784;9.190;2023-02-05T08:54:43;10.30;;;4.83;;
10963;SDS011;5534;48.784;9.190;2023-02-05T08:57:09;13.00;;;5.40;;
10963;SDS011;5534;48.784;9.190;2023-02-05T08:59:35;11.47;;;4.70;;
10963;SDS011;5534;48.784;9.190;2023-02-05T09:02:01;10.17;;;4.77;;
10963;SDS011;5534;48.784;9.190;2023-02-05T09:04:28;7.87;;;5.10;;
10963;SDS011;5534;48.784;9.190;2023-02-05T09:06:55;8.73;;;5.23;;
10963;SDS011;5534;48.784;9.190;2023-02-05T09:09:21;11.23;;;4.83;;
10963;SDS011;5534;48.784;9.190;2023-02-05T09:11:47;9.17;;;4.67;;
10963;SDS011;5534;48.784;9.190;2023-02-05T09:14:13;9.40;;;5.40;;
10963;SDS011;5534;48.784;9.190;2023-02-05T09:16:39;9.93;;;5.50;;
10963;SDS011;5534;48.784;9.190;2023-02-05T09:19:05;11.23;;;4.40;;
10963;SDS011;5534;48.784;9.190;2023-02-05T09:21:31;9.73;;;5.23;;
10963;SDS011;5534;48.784;9.190;2023-02-05T09:23:57;10.17;;;5.30;;
10963;SDS011;5534;48.784;9.190;2023-02-05T09:26:23;14.53;;;6.00;;
10963;SDS011;5534;48.784;9.190;2023-02-05T09:28:50;12.27;;;5.17;;
10963;SDS011;5534;48.784;9.190;2023-02-05T09:31:17;8.80;;;4.73;;
10963;SDS011;5534;48.784;9.190;2023-02-05T09:33:44;11.13;;;5.77;;
10963;SDS011;5534;48.784;9.190;2023-02-05T09:36:18;13.03;;;5.63;;
10963;SDS011;5534;48.784;9.190;2023-02-05T09:38:45;10.63;;;4.80;;
10963;SDS011;5534;48.784;9.190;2023-02-05T09:51:44;11.27;;;4.43;;
10963;SDS011;5534;48.784;9.190;2023-02-05T09:56:42;9.87;;;5.40;;
10963;SDS011;5534;48.784;9.190;2023-02-05T09:59:18;9.87;;;5.77;;
10963;SDS011;5534;48.784;9.190;2023-02-05T10:01:49;16.70;;;6.20;;
10963;SDS011;5534;48.784;9.190;2023-02-05T10:04:18;9.60;;;6.10;;
10963;SDS011;5534;48.784;9.190;2023-02-05T10:06:52;11.50;;;5.97;;
10963;SDS011;5534;48.784;9.190;2023-02-05T10:10:00;15.87;;;7.57;;
10963;SDS011;5534;48.784;9.190;2023-02-05T10:12:37;13.40;;;6.87;;
10963;SDS011;5534;48.784;9.190;2023-02-05T10:18:04;13.13;;;6.30;;
10963;SDS011;5534;48.784;9.190;2023-02-05T10:26:52;13.50;;;6.63;;
10963;SDS011;5534;48.784;9.190;2023-02-05T10:32:43;10.63;;;6.37;;
10963;SDS011;5534;48.784;9.190;2023-02-05T10:35:23;10.50;;;6.20;;
10963;SDS011;5534;48.784;9.190;2023-02-05T10:38:15;10.87;;;5.80;;
10963;SDS011;5534;48.784;9.190;2023-02-05T10:40:48;14.47;;;5.70;;
10963;SDS011;5534;48.784;9.190;2023-02-05T10:45:54;13.17;;;6.60;;
10963;SDS011;5534;48.784;9.190;2023-02-05T10:51:08;12.20;;;6.80;;
10963;SDS011;5534;48.784;9.190;2023-02-05T10:53:46;12.00;;;7.17;;
10963;SDS011;5534;48.784;9.190;2023-02-05T10:56:16;11.47;;;6.87;;
10963;SDS011;5534;48.784;9.190;2023-02-05T11:03:57;9.47;;;6.13;;
10963;SDS011;5534;48.784;9.190;2023-02-05T11:06:26;11.73;;;6.90;;
10963;SDS011;5534;48.784;9.190;2023-02-05T11:08:54;13.53;;;6.63;;
10963;SDS011;5534;48.784;9.190;2023-02-05T11:11:24;14.13;;;7.53;;
10963;SDS011;5534;48.784;9.190;2023-02-05T11:13:59;10.83;;;6.90;;
10963;SDS011;5534;48.784;9.190;2023-02-05T11:16:38;10.50;;;6.50;;
10963;SDS011;5534;48.784;9.190;2023-02-05T11:19:26;12.50;;;7.90;;
10963;SDS011;5534;48.784;9.190;2023-02-05T11:21:54;11.43;;;7.33;;
10963;SDS011;5534;48.784;9.190;2023-02-05T11:24:28;12.30;;;6.50;;
10963;SDS011;5534;48.784;9.190;2023-02-05T11:29:54;8.97;;;5.87;;
10963;SDS011;5534;48.784;9.190;2023-02-05T11:38:09;11.07;;;6.50;;
10963;SDS011;5534;48.784;9.190;2023-02-05T11:40:51;10.07;;;6.30;;
10963;SDS011;5534;48.784;9.190;2023-02-05T11:43:29;9.87;;;6.20;;
10963;SDS011;5534;48.784;9.190;2023-02-05T11:45:57;12.60;;;6.80;;
10963;SDS011;5534;48.784;9.190;2023-02-05T11:50:59;10.30;;;6.23;;
10963;SDS011;5534;48.784;9.190;2023-02-05T11:53:27;11.67;;;6.73;;
10963;SDS011;5534;48.784;9.190;2023-02-05T11:55:55;14.57;;;7.23;;
10963;SDS011;5534;48.784;9.190;2023-02-05T11:58:26;12.50;;;7.70;;
10963;SDS011;5534;48.784;9.190;2023-02-05T12:00:58;13.27;;;7.13;;
10963;SDS011;5534;48.784;9.190;2023-02-05T12:03:30;13.90;;;7.13;;
10963;SDS011;5534;48.784;9.190;2023-02-05T12:06:10;12.20;;;7.47;;
10963;SDS011;5534;48.784;9.190;2023-02-05T12:08:44;13.10;;;7.03;;
10963;SDS011;5534;48.784;9.190;2023-02-05T12:11:24;17.05;;;8.85;;
10963;SDS011;5534;48.784;9.190;2023-02-05T12:19:53;11.40;;;7.00;;
10963;SDS011;5534;48.784;9.190;2023-02-05T12:25:35;13.30;;;7.37;;
10963;SDS011;5534;48.784;9.190;2023-02-05T12:42:07;15.67;;;7.87;;
10963;SDS011;5534;48.784;9.190;2023-02-05T12:47:49;12.83;;;6.53;;
10963;SDS011;5534;48.784;9.190;2023-02-05T12:53:26;10.03;;;6.27;;
10963;SDS011;5534;48.784;9.190;2023-02-05T12:55:47;12.83;;;7.23;;
10963;SDS011;5534;48.784;9.190;2023-02-05T12:58:26;15.37;;;6.80;;
10963;SDS011;5534;48.784;9.190;2023-02-05T13:01:02;7.27;;;4.70;;
10963;SDS011;5534;48.784;9.190;2023-02-05T13:03:38;12.37;;;5.00;;
10963;SDS011;5534;48.784;9.190;2023-02-05T13:06:13;8.07;;;4.37;;
10963;SDS011;5534;48.784;9.190;2023-02-05T13:11:16;9.07;;;4.70;;
10963;SDS011;5534;48.784;9.190;2023-02-05T13:16:48;5.60;;;3.87;;
10963;SDS011;5534;48.784;9.190;2023-02-05T13:22:00;8.03;;;4.97;;
10963;SDS011;5534;48.784;9.190;2023-02-05T13:33:51;10.03;;;6.03;;
10963;SDS011;5534;48.784;9.190;2023-02-05T13:38:59;10.30;;;5.50;;
10963;SDS011;5534;48.784;9.190;2023-02-05T13:41:58;13.20;;;5.60;;
10963;SDS011;5534;48.784;9.190;2023-02-05T13:50:50;4.27;;;3.23;;
10963;SDS011;5534;48.784;9.190;2023-02-05T13:56:32;3.20;;;2.63;;
10963;SDS011;5534;48.784;9.190;2023-02-05T13:59:17;4.77;;;2.30;;
10963;SDS011;5534;48.784;9.190;2023-02-05T14:04:46;4.47;;;2.67;;
10963;SDS011;5534;48.784;9.190;2023-02-05T14:07:21;4.97;;;2.07;;
10963;SDS011;5534;48.784;9.190;2023-02-05T14:09:56;5.47;;;2.53;;
10963;SDS011;5534;48.784;9.190;2023-02-05T14:12:35;3.47;;;2.40;;
10963;SDS011;5534;48.784;9.190;2023-02-05T14:38:51;3.17;;;2.50;;
10963;SDS011;5534;48.784;9.190;2023-02-05T14:41:29;2.83;;;1.70;;
10963;SDS011;5534;48.784;9.190;2023-02-05T14:44:15;2.40;;;1.80;;
10963;SDS011;5534;48.784;9.190;2023-02-05T14:46:54;1.70;;;1.30;;
10963;SDS011;5534;48.784;9.190;2023-02-05T14:49:43;1.87;;;1.30;;
10963;SDS011;5534;48.784;9.190;2023-02-05T14:52:19;2.53;;;1.90;;
10963;SDS011;5534;48.784;9.190;2023-02-05T14:54:55;3.13;;;1.60;;
10963;SDS011;5534;48.784;9.190;2023-02-05T14:57:48;2.10;;;1.50;;
10963;SDS011;5534;48.784;9.190;2023-02-05T15:00:28;2.10;;;1.53;;
10963;SDS011;5534;48.784;9.190;2023-02-05T15:08:14;1.60;;;1.43;;
10963;SDS011;5534;48.784;9.190;2023-02-05T15:10:56;2.10;;;1.30;;
10963;SDS011;5534;48.784;9.190;2023-02-05T15:13:29;1.83;;;1.43;;
10963;SDS011;5534;48.784;9.190;2023-02-05T15:16:06;2.70;;;1.60;;
10963;SDS011;5534;48.784;9.190;2023-02-05T15:18:51;1.80;;;1.30;;
10963;SDS011;5534;48.784;9.190;2023-02-05T15:21:26;2.13;;;1.60;;
10963;SDS011;5534;48.784;9.190;2023-02-05T15:23:58;2.50;;;1.63;;
10963;SDS011;5534;48.784;9.190;2023-02-05T15:29:30;1.50;;;1.30;;
10963;SDS011;5534;48.784;9.190;2023-02-05T15:32:02;2.30;;;1.33;;
10963;SDS011;5534;48.784;9.190;2023-02-05T15:34:38;2.13;;;1.53;;
10963;SDS011;5534;48.784;9.190;2023-02-05T15:37:22;2.17;;;1.63;;
10963;SDS011;5534;48.784;9.190;2023-02-05T15:42:31;2.17;;;1.67;;
10963;SDS011;5534;48.784;9.190;2023-02-05T15:48:01;1.77;;;1.40;;
10963;SDS011;5534;48.784;9.190;2023-02-05T15:50:34;1.63;;;1.43;;
10963;SDS011;5534;48.784;9.190;2023-02-05T15:55:51;3.67;;;2.07;;
10963;SDS011;5534;48.784;9.190;2023-02-05T15:58:19;3.50;;;2.00;;
10963;SDS011;5534;48.784;9.190;2023-02-05T16:00:48;2.93;;;1.97;;
10963;SDS011;5534;48.784;9.190;2023-02-05T16:03:34;2.80;;;1.83;;
10963;SDS011;5534;48.784;9.190;2023-02-05T16:06:00;2.03;;;1.83;;
10963;SDS011;5534;48.784;9.190;2023-02-05T16:08:26;2.23;;;1.30;;
10963;SDS011;5534;48.784;9.190;2023-02-05T16:10:53;1.90;;;1.70;;
10963;SDS011;5534;48.784;9.190;2023-02-05T16:13:23;2.37;;;1.90;;
10963;SDS011;5534;48.784;9.190;2023-02-05T16:15:55;3.27;;;2.10;;
10963;SDS011;5534;48.784;9.190;2023-02-05T16:18:49;2.90;;;2.10;;
10963;SDS011;5534;48.784;9.190;2023-02-05T16:21:25;2.30;;;2.00;;
10963;SDS011;5534;48.784;9.190;2023-02-05T16:23:59;2.77;;;1.90;;
10963;SDS011;5534;48.784;9.190;2023-02-05T16:26:35;2.83;;;2.00;;
10963;SDS011;5534;48.784;9.190;2023-02-05T16:29:28;2.83;;;2.17;;
10963;SDS011;5534;48.784;9.190;2023-02-05T16:32:02;2.90;;;2.30;;
10963;SDS011;5534;48.784;9.190;2023-02-05T16:34:30;3.80;;;2.27;;
10963;SDS011;5534;48.784;9.190;2023-02-05T16:37:02;4.73;;;2.10;;
10963;SDS011;5534;48.784;9.190;2023-02-05T16:39:42;2.67;;;1.90;;
10963;SDS011;5534;48.784;9.190;2023-02-05T16:42:26;3.63;;;1.97;;
10963;SDS011;5534;48.784;9.190;2023-02-05T16:48:13;3.53;;;2.30;;
10963;SDS011;5534;48.784;9.190;2023-02-05T16:50:47;2.20;;;1.80;;
10963;SDS011;5534;48.784;9.190;2023-02-05T16:53:15;4.53;;;2.40;;
10963;SDS011;5534;48.784;9.190;2023-02-05T16:55:47;3.67;;;2.80;;
10963;SDS011;5534;48.784;9.190;2023-02-05T16:58:17;4.83;;;2.77;;
10963;SDS011;5534;48.784;9.190;2023-02-05T17:00:54;10.30;;;6.33;;
10963;SDS011;5534;48.784;9.190;2023-02-05T17:03:22;6.63;;;3.43;;
10963;SDS011;5534;48.784;9.190;2023-02-05T17:05:54;37.33;;;21.77;;
10963;SDS011;5534;48.784;9.190;2023-02-05T17:08:26;21.63;;;13.50;;
10963;SDS011;5534;48.784;9.190;2023-02-05T17:10:56;5.63;;;4.43;;
10963;SDS011;5534;48.784;9.190;2023-02-05T17:13:27;6.97;;;4.73;;
10963;SDS011;5534;48.784;9.190;2023-02-05T17:16:00;6.23;;;2.80;;
10963;SDS011;5534;48.784;9.190;2023-02-05T17:18:57;3.57;;;2.67;;
10963;SDS011;5534;48.784;9.190;2023-02-05T17:21:30;3.67;;;2.57;;
10963;SDS011;5534;48.784;9.190;2023-02-05T17:23:58;3.03;;;2.40;;
10963;SDS011;5534;48.784;9.190;2023-02-05T17:26:26;4.13;;;3.30;;
10963;SDS011;5534;48.784;9.190;2023-02-05T17:28:56;4.20;;;3.10;;
10963;SDS011;5534;48.784;9.190;2023-02-05T17:31:24;4.33;;;3.00;;
10963;SDS011;5534;48.784;9.190;2023-02-05T17:33:53;6.13;;;3.40;;
10963;SDS011;5534;48.784;9.190;2023-02-05T17:36:22;6.00;;;3.87;;
10963;SDS011;5534;48.784;9.190;2023-02-05T17:38:49;5.13;;;3.60;;
10963;SDS011;5534;48.784;9.190;2023-02-05T17:41:17;5.73;;;3.30;;
10963;SDS011;5534;48.784;9.190;2023-02-05T17:44:03;5.00;;;3.40;;
10963;SDS011;5534;48.784;9.190;2023-02-05T17:46:29;4.17;;;3.20;;
10963;SDS011;5534;48.784;9.190;2023-02-05T17:48:55;4.33;;;3.70;;
10963;SDS011;5534;48.784;9.190;2023-02-05T17:51:22;4.93;;;3.87;;
10963;SDS011;5534;48.784;9.190;2023-02-05T17:53:49;6.23;;;4.10;;
10963;SDS011;5534;48.784;9.190;2023-02-05T17:56:15;5.70;;;4.40;;
10963;SDS011;5534;48.784;9.190;2023-02-05T17:58:43;5.40;;;4.50;;
10963;SDS011;5534;48.784;9.190;2023-02-05T18:01:09;5.73;;;4.30;;
10963;SDS011;5534;48.784;9.190;2023-02-05T18:03:36;4.57;;;3.63;;
10963;SDS011;5534;48.784;9.190;2023-02-05T18:06:02;4.30;;;3.73;;